createdAt,value
2018-10-17T00:01:33.509Z,19.70
2018-10-17T00:03:36.429Z,16.70
2018-10-17T00:05:40.094Z,13.93
2018-10-17T00:07:42.989Z,13.20
2018-10-17T00:09:47.429Z,18.00
2018-10-17T00:11:51.067Z,16.13
2018-10-17T00:13:54.005Z,12.73
2018-10-17T00:15:57.685Z,16.33
2018-10-17T00:18:02.080Z,18.10
2018-10-17T00:20:04.967Z,15.07
2018-10-17T00:22:07.902Z,20.47
2018-10-17T00:24:12.092Z,14.63
2018-10-17T00:26:15.013Z,15.33
2018-10-17T00:28:17.941Z,17.00
2018-10-17T00:30:22.549Z,17.23
2018-10-17T00:32:26.793Z,20.13
2018-10-17T00:34:31.293Z,18.53
2018-10-17T00:36:34.177Z,15.07
2018-10-17T00:38:37.879Z,22.93
2018-10-17T00:40:42.312Z,15.90
2018-10-17T00:42:45.993Z,18.27
2018-10-17T00:44:49.661Z,18.87
2018-10-17T00:46:52.682Z,17.37
2018-10-17T00:48:56.817Z,17.30
2018-10-17T00:50:59.701Z,18.37
2018-10-17T00:53:04.076Z,19.20
2018-10-17T00:55:07.725Z,18.30
2018-10-17T00:57:10.557Z,15.87
2018-10-17T00:59:15.165Z,14.70
2018-10-17T01:01:18.002Z,17.20
2018-10-17T01:03:21.565Z,18.13
2018-10-17T01:05:25.356Z,15.23
2018-10-17T01:07:28.242Z,17.93
2018-10-17T01:09:31.121Z,23.23
2018-10-17T01:11:34.329Z,24.27
2018-10-17T01:13:37.985Z,22.17
2018-10-17T01:15:40.869Z,15.87
2018-10-17T01:17:43.806Z,19.50
2018-10-17T01:19:47.472Z,16.63
2018-10-17T01:21:51.880Z,15.50
2018-10-17T01:23:55.217Z,17.37
2018-10-17T01:25:58.106Z,12.50
2018-10-17T01:28:01.459Z,21.27
2018-10-17T01:30:05.653Z,17.80
2018-10-17T01:32:10.058Z,16.20
2018-10-17T01:34:12.973Z,14.13
2018-10-17T01:36:16.657Z,15.63
2018-10-17T01:38:19.537Z,12.53
2018-10-17T01:40:22.423Z,20.03
2018-10-17T01:42:25.438Z,18.33
2018-10-17T01:44:29.105Z,13.13
2018-10-17T01:46:32.007Z,15.17
2018-10-17T01:48:35.982Z,15.83
2018-10-17T01:50:38.869Z,16.53
2018-10-17T01:52:43.265Z,21.03
2018-10-17T01:54:46.172Z,17.33
2018-10-17T01:56:49.834Z,16.53
2018-10-17T01:58:52.760Z,14.50
2018-10-17T02:00:56.506Z,13.52
2018-10-17T02:02:59.430Z,16.13
2018-10-17T02:05:02.364Z,15.07
2018-10-17T02:07:05.338Z,15.70
2018-10-17T02:09:08.639Z,22.10
2018-10-17T02:11:11.647Z,23.33
2018-10-17T02:13:14.556Z,17.20
2018-10-17T02:15:17.366Z,26.40
2018-10-17T02:17:20.759Z,11.07
2018-10-17T02:19:24.400Z,17.27
2018-10-17T02:21:27.297Z,27.67
2018-10-17T02:23:30.936Z,17.77
2018-10-17T02:25:33.853Z,18.73
2018-10-17T02:27:36.740Z,19.63
2018-10-17T02:29:39.624Z,17.90
2018-10-17T02:31:42.624Z,14.70
2018-10-17T02:33:45.545Z,15.17
2018-10-17T02:35:48.451Z,18.53
2018-10-17T02:37:51.369Z,20.77
2018-10-17T02:39:54.277Z,18.07
2018-10-17T02:41:57.924Z,24.10
2018-10-17T02:44:00.825Z,21.67
2018-10-17T02:46:03.708Z,15.30
2018-10-17T02:48:06.630Z,15.63
2018-10-17T02:50:09.681Z,17.30
2018-10-17T02:52:13.366Z,19.57
2018-10-17T02:54:16.254Z,24.27
2018-10-17T02:56:19.969Z,28.10
2018-10-17T02:58:23.636Z,25.70
2018-10-17T03:00:26.549Z,27.73
2018-10-17T03:02:30.229Z,24.80
2018-10-17T03:04:33.220Z,21.07
2018-10-17T03:06:36.149Z,22.80
2018-10-17T03:08:39.117Z,24.17
2018-10-17T03:10:42.764Z,20.93
2018-10-17T03:12:45.651Z,24.23
2018-10-17T03:14:48.758Z,22.33
2018-10-17T03:16:51.764Z,23.87
2018-10-17T03:18:56.169Z,19.30
2018-10-17T03:20:59.041Z,19.30
2018-10-17T03:23:02.763Z,18.00
2018-10-17T03:25:07.169Z,20.07
2018-10-17T03:27:10.063Z,22.17
2018-10-17T03:29:13.738Z,24.00
2018-10-17T03:31:16.976Z,18.70
2018-10-17T03:33:19.916Z,22.63
2018-10-17T03:35:23.575Z,16.83
2018-10-17T03:37:26.470Z,17.87
2018-10-17T03:39:29.390Z,28.03
2018-10-17T03:41:32.391Z,17.77
2018-10-17T03:43:36.029Z,25.03
2018-10-17T03:45:38.960Z,17.60
2018-10-17T03:47:41.948Z,18.20
2018-10-17T03:49:45.718Z,19.13
2018-10-17T03:51:48.638Z,22.70
2018-10-17T03:53:51.513Z,17.57
2018-10-17T03:55:54.398Z,21.13
2018-10-17T03:57:57.416Z,23.90
2018-10-17T04:00:00.306Z,25.83
2018-10-17T04:02:03.202Z,24.70
2018-10-17T04:04:07.825Z,25.90
2018-10-17T04:06:11.493Z,21.77
2018-10-17T04:08:14.443Z,18.47
2018-10-17T04:10:18.115Z,17.27
2018-10-17T04:12:21.041Z,17.70
2018-10-17T04:14:24.340Z,14.40
2018-10-17T04:16:27.888Z,16.83
2018-10-17T04:18:31.586Z,22.60
2018-10-17T04:20:35.279Z,22.60
2018-10-17T04:22:39.754Z,16.30
2018-10-17T04:24:43.158Z,17.37
2018-10-17T04:26:46.160Z,22.97
2018-10-17T04:28:49.286Z,22.73
2018-10-17T04:30:52.971Z,16.00
2018-10-17T04:32:55.831Z,14.93
2018-10-17T04:34:58.907Z,15.70
2018-10-17T04:37:02.498Z,18.47
2018-10-17T04:39:05.408Z,19.60
2018-10-17T04:41:09.240Z,19.10
2018-10-17T04:43:12.218Z,22.77
2018-10-17T04:45:15.789Z,22.27
2018-10-17T04:47:20.025Z,18.10
2018-10-17T04:49:23.649Z,18.53
2018-10-17T04:51:26.555Z,19.80
2018-10-17T04:53:29.525Z,17.03
2018-10-17T04:55:32.417Z,17.90
2018-10-17T04:57:35.418Z,19.90
2018-10-17T04:59:38.335Z,15.67
2018-10-17T05:01:41.233Z,25.20
2018-10-17T05:03:44.134Z,13.37
2018-10-17T05:05:47.161Z,18.53
2018-10-17T05:07:50.837Z,21.90
2018-10-17T05:09:53.735Z,15.27
2018-10-17T05:11:57.442Z,20.53
2018-10-17T05:14:01.095Z,16.07
2018-10-17T05:16:03.986Z,15.07
2018-10-17T05:18:07.752Z,14.80
2018-10-17T05:20:11.156Z,20.90
2018-10-17T05:22:14.025Z,15.80
2018-10-17T05:24:17.410Z,26.67
2018-10-17T05:26:20.370Z,17.17
2018-10-17T05:28:24.034Z,26.23
2018-10-17T05:30:27.136Z,41.47
2018-10-17T05:32:30.069Z,53.57
2018-10-17T05:34:32.977Z,30.53
2018-10-17T05:36:35.886Z,25.47
2018-10-17T05:38:39.301Z,18.50
2018-10-17T05:40:42.977Z,14.37
2018-10-17T05:42:45.877Z,15.20
2018-10-17T05:44:49.533Z,15.50
2018-10-17T05:46:52.456Z,16.87
2018-10-17T05:48:56.127Z,23.10
2018-10-17T05:50:59.000Z,17.57
2018-10-17T05:53:02.011Z,16.90
2018-10-17T05:55:04.856Z,18.60
2018-10-17T05:57:07.714Z,21.43
2018-10-17T05:59:10.758Z,18.23
2018-10-17T06:01:14.444Z,18.60
2018-10-17T06:03:17.226Z,25.67
2018-10-17T06:05:22.369Z,18.27
2018-10-17T06:07:25.259Z,20.70
2018-10-17T06:09:28.921Z,30.00
2018-10-17T06:11:31.838Z,17.90
2018-10-17T06:13:35.641Z,22.45
2018-10-17T06:15:39.298Z,23.90
2018-10-17T06:17:42.297Z,23.10
2018-10-17T06:19:45.173Z,21.13
2018-10-17T06:21:48.093Z,18.67
2018-10-17T06:23:51.749Z,20.57
2018-10-17T06:25:54.637Z,24.30
2018-10-17T06:27:59.098Z,21.97
2018-10-17T06:30:01.994Z,19.30
2018-10-17T06:32:05.871Z,18.40
2018-10-17T06:34:09.919Z,29.73
2018-10-17T06:36:13.550Z,24.13
2018-10-17T06:38:16.447Z,24.13
2018-10-17T06:40:19.418Z,16.87
2018-10-17T06:42:23.077Z,14.80
2018-10-17T06:44:26.010Z,18.07
2018-10-17T06:46:29.696Z,20.53
2018-10-17T06:48:32.608Z,30.57
2018-10-17T06:50:36.262Z,21.87
2018-10-17T06:52:39.163Z,25.67
2018-10-17T06:54:42.046Z,27.87
2018-10-17T06:56:45.037Z,20.75
2018-10-17T06:58:48.702Z,23.57
2018-10-17T07:00:51.657Z,20.90
2018-10-17T07:02:54.557Z,23.80
2018-10-17T07:04:57.489Z,23.03
2018-10-17T07:07:01.190Z,33.30
2018-10-17T07:09:04.877Z,21.97
2018-10-17T07:11:08.606Z,22.50
2018-10-17T07:13:11.551Z,24.67
2018-10-17T07:15:15.286Z,27.10
2018-10-17T07:17:18.132Z,20.10
2018-10-17T07:19:21.012Z,27.37
2018-10-17T07:21:24.713Z,24.80
2018-10-17T07:23:27.597Z,18.70
2018-10-17T07:25:31.301Z,26.50
2018-10-17T07:27:34.957Z,28.00
2018-10-17T07:29:38.030Z,17.70
2018-10-17T07:31:42.292Z,31.40
2018-10-17T07:33:46.372Z,30.10
2018-10-17T07:35:49.463Z,22.43
2018-10-17T07:37:52.300Z,27.90
2018-10-17T07:39:55.948Z,23.03
2018-10-17T07:41:58.937Z,23.50
2018-10-17T07:44:01.810Z,36.07
2018-10-17T07:46:04.696Z,23.47
2018-10-17T07:48:07.665Z,22.37
2018-10-17T07:50:10.522Z,28.27
2018-10-17T07:52:13.432Z,37.93
2018-10-17T07:54:16.405Z,43.43
2018-10-17T07:56:20.026Z,24.67
2018-10-17T07:58:22.938Z,25.27
2018-10-17T08:00:26.692Z,29.37
2018-10-17T08:02:29.506Z,32.80
2018-10-17T08:04:33.742Z,31.77
2018-10-17T08:06:37.443Z,31.70
2018-10-17T08:08:41.086Z,35.70
2018-10-17T08:10:43.973Z,32.00
2018-10-17T08:12:46.877Z,29.83
2018-10-17T08:14:50.545Z,31.87
2018-10-17T08:16:53.466Z,31.03
2018-10-17T08:18:57.118Z,32.07
2018-10-17T08:21:01.805Z,33.37
2018-10-17T08:23:05.350Z,36.40
2018-10-17T08:25:08.278Z,30.37
2018-10-17T08:27:11.302Z,30.00
2018-10-17T08:29:14.212Z,31.50
2018-10-17T08:31:17.097Z,31.40
2018-10-17T08:33:20.001Z,48.00
2018-10-17T08:35:23.677Z,31.07
2018-10-17T08:37:26.844Z,33.07
2018-10-17T08:39:29.497Z,35.30
2018-10-17T08:41:32.394Z,32.90
2018-10-17T08:43:35.305Z,31.50
2018-10-17T08:45:38.197Z,34.70
2018-10-17T08:47:41.864Z,27.80
2018-10-17T08:49:44.765Z,34.37
2018-10-17T08:51:48.433Z,33.40
2018-10-17T08:53:51.342Z,37.43
2018-10-17T08:55:54.320Z,37.23
2018-10-17T08:57:57.235Z,34.37
2018-10-17T09:00:00.073Z,32.23
2018-10-17T09:02:03.012Z,39.97
2018-10-17T09:04:06.018Z,33.95
2018-10-17T09:06:09.006Z,37.33
2018-10-17T09:08:11.954Z,38.13
2018-10-17T09:10:15.653Z,43.97
2018-10-17T09:12:19.360Z,32.67
2018-10-17T09:14:22.239Z,36.40
2018-10-17T09:16:25.192Z,28.97
2018-10-17T09:18:28.039Z,32.63
2018-10-17T09:20:31.093Z,29.00
2018-10-17T09:22:34.041Z,28.80
2018-10-17T09:24:38.187Z,30.00
2018-10-17T09:28:57.621Z,27.57
2018-10-17T09:31:00.534Z,35.13
2018-10-17T09:33:03.428Z,35.90
2018-10-17T09:35:06.363Z,26.50
2018-10-17T09:37:09.233Z,27.30
2018-10-17T09:39:12.185Z,34.75
2018-10-17T09:41:15.977Z,33.93
2018-10-17T09:43:18.968Z,25.30
2018-10-17T09:45:21.883Z,35.60
2018-10-17T09:47:26.454Z,35.47
2018-10-17T09:49:29.374Z,25.27
2018-10-17T09:51:32.263Z,31.57
2018-10-17T09:53:35.166Z,31.13
2018-10-17T09:55:38.149Z,29.57
2018-10-17T09:57:41.816Z,36.07
2018-10-17T09:59:44.715Z,31.23
2018-10-17T10:01:47.612Z,30.33
2018-10-17T10:03:51.327Z,26.57
2018-10-17T10:05:54.299Z,24.53
2018-10-17T10:07:58.717Z,28.57
2018-10-17T10:10:02.416Z,31.37
2018-10-17T10:12:05.348Z,31.40
2018-10-17T10:14:08.382Z,33.90
2018-10-17T10:16:12.738Z,26.33
2018-10-17T10:18:15.569Z,26.23
2018-10-17T10:20:19.677Z,25.77
2018-10-17T10:22:22.666Z,26.73
2018-10-17T10:24:26.104Z,30.77
2018-10-17T10:26:29.885Z,21.57
2018-10-17T10:28:33.603Z,17.30
2018-10-17T10:30:36.745Z,24.07
2018-10-17T10:32:40.406Z,28.90
2018-10-17T10:34:43.306Z,19.97
2018-10-17T10:36:46.223Z,22.37
2018-10-17T10:38:49.880Z,19.13
2018-10-17T10:40:52.770Z,22.07
2018-10-17T10:42:55.682Z,18.57
2018-10-17T10:44:59.840Z,19.10
2018-10-17T10:47:02.641Z,21.67
2018-10-17T10:49:07.112Z,23.40
2018-10-17T10:51:10.956Z,24.00
2018-10-17T10:53:13.745Z,26.43
2018-10-17T10:55:18.185Z,23.33
2018-10-17T10:57:22.315Z,18.67
2018-10-17T10:59:26.119Z,20.80
2018-10-17T11:01:28.877Z,23.43
2018-10-17T11:03:32.521Z,28.70
2018-10-17T11:05:36.133Z,22.40
2018-10-17T11:07:39.640Z,22.07
2018-10-17T11:09:42.566Z,29.30
2018-10-17T11:11:45.455Z,26.67
2018-10-17T11:13:49.960Z,25.47
2018-10-17T11:15:54.749Z,24.30
2018-10-17T11:17:57.646Z,23.83
2018-10-17T11:20:02.192Z,31.50
2018-10-17T11:22:05.967Z,23.23
2018-10-17T11:24:08.710Z,26.60
2018-10-17T11:26:11.732Z,22.13
2018-10-17T11:28:15.433Z,23.20
2018-10-17T11:30:19.097Z,20.10
2018-10-17T11:32:22.214Z,24.17
2018-10-17T11:34:25.865Z,25.03
2018-10-17T11:36:28.749Z,28.93
2018-10-17T11:38:31.650Z,23.53
2018-10-17T11:40:34.637Z,33.63
2018-10-17T11:42:37.950Z,24.03
2018-10-17T11:44:41.642Z,34.80
2018-10-17T11:46:46.062Z,20.50
2018-10-17T11:48:49.714Z,24.50
2018-10-17T11:50:52.648Z,19.52
2018-10-17T11:52:56.373Z,23.67
2018-10-17T11:54:59.225Z,23.20
2018-10-17T11:57:02.240Z,27.53
2018-10-17T11:59:05.073Z,19.77
2018-10-17T12:01:08.985Z,28.73
2018-10-17T12:03:12.017Z,36.33
2018-10-17T12:05:15.331Z,29.03
2018-10-17T12:07:17.802Z,23.43
2018-10-17T12:09:20.726Z,23.30
2018-10-17T12:11:25.009Z,21.20
2018-10-17T12:13:27.802Z,26.63
2018-10-17T12:15:30.725Z,35.77
2018-10-17T12:17:33.618Z,21.90
2018-10-17T12:19:36.510Z,19.40
2018-10-17T12:21:40.022Z,14.40
2018-10-17T12:23:43.621Z,16.40
2018-10-17T12:25:46.932Z,17.60
2018-10-17T12:27:49.885Z,17.30
2018-10-17T12:29:53.529Z,13.93
2018-10-17T12:31:56.443Z,15.07
2018-10-17T12:33:59.513Z,11.73
2018-10-17T12:36:03.879Z,13.60
2018-10-17T12:38:06.827Z,13.70
2018-10-17T12:40:09.854Z,21.63
2018-10-17T12:42:12.692Z,21.20
2018-10-17T12:44:15.653Z,21.30
2018-10-17T12:46:18.505Z,17.67
2018-10-17T12:48:21.591Z,15.53
2018-10-17T12:50:24.604Z,13.30
2018-10-17T12:52:27.930Z,15.73
2018-10-17T12:54:30.826Z,13.87
2018-10-17T12:56:33.719Z,18.30
2018-10-17T12:58:36.604Z,14.17
2018-10-17T13:00:39.523Z,18.57
2018-10-17T13:02:43.197Z,12.77
2018-10-17T13:04:46.849Z,13.73
2018-10-17T13:06:49.752Z,15.33
2018-10-17T13:08:52.633Z,13.60
2018-10-17T13:10:55.532Z,11.47
2018-10-17T13:12:59.952Z,12.77
2018-10-17T13:15:04.433Z,20.40
2018-10-17T13:17:07.328Z,16.37
2018-10-17T13:19:11.015Z,16.63
2018-10-17T13:21:13.820Z,16.87
2018-10-17T13:23:16.863Z,9.80
2018-10-17T13:25:20.857Z,10.50
2018-10-17T13:27:23.794Z,17.43
2018-10-17T13:29:26.697Z,10.27
2018-10-17T13:31:30.340Z,15.13
2018-10-17T13:33:33.235Z,19.13
2018-10-17T13:35:36.237Z,15.93
2018-10-17T13:37:41.459Z,11.70
2018-10-17T13:39:44.366Z,11.60
2018-10-17T13:41:47.347Z,11.23
2018-10-17T13:43:50.256Z,22.10
2018-10-17T13:45:54.313Z,11.13
2018-10-17T13:47:57.360Z,11.67
2018-10-17T13:50:00.242Z,14.63
2018-10-17T13:52:03.854Z,13.73
2018-10-17T13:54:06.839Z,16.80
2018-10-17T13:56:09.778Z,12.93
2018-10-17T13:58:13.496Z,9.03
2018-10-17T14:00:16.363Z,10.57
2018-10-17T14:02:19.999Z,10.90
2018-10-17T14:04:23.366Z,8.30
2018-10-17T14:06:26.347Z,8.17
2018-10-17T14:08:29.986Z,10.90
2018-10-17T14:10:32.861Z,13.90
2018-10-17T14:12:35.760Z,8.33
2018-10-17T14:14:38.634Z,7.30
2018-10-17T14:16:41.552Z,12.97
2018-10-17T14:18:45.249Z,10.70
2018-10-17T14:20:49.815Z,11.73
2018-10-17T14:22:52.853Z,10.10
2018-10-17T14:24:57.094Z,9.77
2018-10-17T14:27:00.033Z,9.47
2018-10-17T14:29:02.877Z,12.80
2018-10-17T14:31:05.933Z,9.90
2018-10-17T14:33:08.854Z,12.90
2018-10-17T14:35:11.712Z,15.83
2018-10-17T14:37:14.669Z,7.43
2018-10-17T14:39:17.649Z,11.47
2018-10-17T14:41:21.408Z,9.53
2018-10-17T14:43:24.986Z,12.57
2018-10-17T14:45:27.913Z,8.43
2018-10-17T14:47:30.791Z,14.33
2018-10-17T14:49:33.681Z,6.93
2018-10-17T14:51:37.021Z,9.50
2018-10-17T14:53:39.966Z,5.93
2018-10-17T14:55:43.729Z,8.87
2018-10-17T14:57:47.326Z,13.43
2018-10-17T14:59:50.360Z,13.83
2018-10-17T15:01:53.986Z,11.73
2018-10-17T15:03:56.878Z,13.90
2018-10-17T15:05:59.893Z,10.20
2018-10-17T15:08:02.771Z,13.30
2018-10-17T15:10:05.815Z,19.07
2018-10-17T15:12:09.618Z,10.30
2018-10-17T15:14:12.456Z,6.13
2018-10-17T15:16:15.328Z,14.43
2018-10-17T15:18:19.151Z,11.93
2018-10-17T15:20:23.542Z,11.13
2018-10-17T15:22:27.201Z,15.70
2018-10-17T15:24:30.317Z,14.67
2018-10-17T15:26:33.925Z,21.40
2018-10-17T15:28:37.661Z,7.35
2018-10-17T15:30:40.671Z,9.03
2018-10-17T15:32:43.544Z,17.23
2018-10-17T15:34:46.446Z,10.30
2018-10-17T15:36:49.390Z,6.50
2018-10-17T15:38:53.030Z,10.50
2018-10-17T15:40:55.886Z,11.67
2018-10-17T15:42:58.813Z,8.33
2018-10-17T15:45:01.740Z,16.13
2018-10-17T15:47:05.345Z,9.80
2018-10-17T15:49:08.498Z,9.37
2018-10-17T15:51:11.905Z,6.17
2018-10-17T15:53:15.824Z,7.70
2018-10-17T15:55:18.729Z,24.47
2018-10-17T15:57:21.639Z,9.60
2018-10-17T15:59:24.545Z,14.37
2018-10-17T16:01:28.194Z,8.03
2018-10-17T16:03:31.093Z,10.33
2018-10-17T16:05:34.007Z,13.20
2018-10-17T16:07:36.944Z,9.10
2018-10-17T16:09:39.835Z,8.50
2018-10-17T16:11:42.828Z,10.37
2018-10-17T16:13:46.405Z,5.73
2018-10-17T16:15:49.265Z,9.40
2018-10-17T16:17:52.212Z,8.27
2018-10-17T16:19:55.972Z,11.63
2018-10-17T16:21:58.857Z,6.97
2018-10-17T16:24:01.811Z,20.07
2018-10-17T16:26:04.891Z,13.53
2018-10-17T16:28:08.411Z,22.37
2018-10-17T16:30:11.498Z,8.33
2018-10-17T16:32:14.585Z,14.00
2018-10-17T16:34:17.364Z,20.83
2018-10-17T16:36:20.321Z,10.77
2018-10-17T16:38:24.065Z,23.33
2018-10-17T16:40:27.744Z,15.77
2018-10-17T16:42:30.597Z,14.53
2018-10-17T16:44:33.593Z,14.77
2018-10-17T16:46:36.473Z,25.87
2018-10-17T16:48:40.207Z,12.70
2018-10-17T16:50:43.376Z,12.50
2018-10-17T16:52:46.077Z,14.63
2018-10-17T16:54:49.764Z,45.27
2018-10-17T16:56:52.788Z,10.43
2018-10-17T16:58:56.313Z,12.57
2018-10-17T17:00:59.218Z,14.30
2018-10-17T17:03:02.312Z,15.40
2018-10-17T17:05:06.709Z,12.70
2018-10-17T17:07:10.121Z,10.80
2018-10-17T17:09:13.100Z,11.90
2018-10-17T17:11:16.431Z,32.73
2018-10-17T17:13:20.058Z,16.57
2018-10-17T17:15:23.897Z,20.17
2018-10-17T17:17:28.277Z,10.27
2018-10-17T17:19:31.271Z,14.73
2018-10-17T17:21:34.162Z,10.70
2018-10-17T17:23:37.038Z,14.13
2018-10-17T17:25:40.570Z,22.90
2018-10-17T17:27:44.966Z,17.30
2018-10-17T17:29:48.003Z,18.33
2018-10-17T17:31:50.801Z,23.10
2018-10-17T17:33:53.715Z,12.90
2018-10-17T17:35:58.161Z,13.63
2018-10-17T17:38:01.022Z,22.33
2018-10-17T17:40:03.998Z,33.07
2018-10-17T17:42:07.030Z,12.67
2018-10-17T17:44:10.003Z,11.60
2018-10-17T17:46:12.946Z,13.00
2018-10-17T17:48:15.815Z,18.03
2018-10-17T17:50:18.809Z,11.00
2018-10-17T17:52:21.783Z,20.47
2018-10-17T17:54:25.787Z,22.70
2018-10-17T17:56:28.676Z,16.10
2018-10-17T17:58:31.724Z,11.80
2018-10-17T18:00:35.218Z,15.20
2018-10-17T18:02:38.140Z,19.43
2018-10-17T18:04:41.157Z,10.33
2018-10-17T18:06:44.789Z,17.27
2018-10-17T18:08:48.090Z,18.43
2018-10-17T18:10:51.001Z,13.13
2018-10-17T18:12:53.897Z,17.87
2018-10-17T18:14:57.613Z,13.23
2018-10-17T18:17:00.661Z,16.13
2018-10-17T18:19:03.552Z,11.63
2018-10-17T18:21:06.424Z,11.77
2018-10-17T18:23:10.841Z,18.33
2018-10-17T18:25:14.167Z,20.33
2018-10-17T18:27:17.074Z,9.93
2018-10-17T18:29:20.467Z,14.57
2018-10-17T18:31:23.375Z,14.67
2018-10-17T18:33:26.265Z,18.13
2018-10-17T18:35:29.557Z,17.03
2018-10-17T18:37:32.442Z,8.73
2018-10-17T18:39:36.829Z,18.10
2018-10-17T18:41:39.738Z,12.20
2018-10-17T18:43:42.631Z,8.63
2018-10-17T18:45:46.462Z,13.30
2018-10-17T18:47:50.219Z,16.13
2018-10-17T18:49:53.793Z,12.20
2018-10-17T18:51:56.675Z,14.23
2018-10-17T18:53:59.827Z,16.30
2018-10-17T18:56:02.954Z,12.80
2018-10-17T18:58:06.541Z,10.43
2018-10-17T19:00:09.572Z,14.57
2018-10-17T19:02:14.208Z,13.90
2018-10-17T19:04:17.570Z,14.33
2018-10-17T19:06:21.285Z,15.00
2018-10-17T19:08:25.122Z,14.90
2018-10-17T19:10:27.985Z,17.37
2018-10-17T19:12:30.901Z,25.23
2018-10-17T19:14:33.821Z,12.43
2018-10-17T19:16:36.753Z,22.35
2018-10-17T19:18:40.044Z,14.10
2018-10-17T19:20:42.926Z,15.03
2018-10-17T19:22:46.070Z,17.53
2018-10-17T19:24:49.914Z,15.07
2018-10-17T19:26:52.842Z,15.77
2018-10-17T19:28:57.251Z,10.73
2018-10-17T19:31:00.586Z,16.80
2018-10-17T19:33:04.478Z,16.57
2018-10-17T19:35:07.375Z,15.77
2018-10-17T19:37:10.314Z,16.43
2018-10-17T19:39:14.798Z,18.30
2018-10-17T19:41:17.610Z,17.07
2018-10-17T19:43:20.628Z,12.47
2018-10-17T19:45:24.271Z,19.50
2018-10-17T19:47:27.245Z,23.13
2018-10-17T19:49:30.397Z,14.57
2018-10-17T19:51:33.302Z,15.13
2018-10-17T19:53:36.345Z,13.63
2018-10-17T19:55:40.063Z,13.83
2018-10-17T19:57:44.448Z,11.17
2018-10-17T19:59:47.309Z,11.70
2018-10-17T20:01:50.216Z,13.03
2018-10-17T20:03:53.181Z,46.10
2018-10-17T20:05:56.076Z,58.03
2018-10-17T20:08:00.606Z,37.10
2018-10-17T20:10:04.261Z,22.77
2018-10-17T20:12:07.133Z,19.67
2018-10-17T20:14:10.085Z,15.30
2018-10-17T20:16:13.718Z,15.40
2018-10-17T20:18:16.662Z,16.37
2018-10-17T20:20:20.397Z,17.63
2018-10-17T20:22:23.284Z,10.57
2018-10-17T20:24:26.173Z,13.77
2018-10-17T20:26:29.107Z,10.23
2018-10-17T20:28:33.285Z,15.97
2018-10-17T20:30:37.073Z,17.00
2018-10-17T20:32:39.989Z,12.23
2018-10-17T20:34:43.665Z,19.13
2018-10-17T20:36:46.635Z,10.87
2018-10-17T20:38:49.515Z,32.93
2018-10-17T20:40:52.411Z,25.23
2018-10-17T20:42:56.081Z,20.47
2018-10-17T20:44:59.050Z,23.20
2018-10-17T20:47:02.735Z,21.33
2018-10-17T20:49:05.681Z,14.23
2018-10-17T20:51:09.367Z,11.80
2018-10-17T20:53:12.241Z,19.90
2018-10-17T20:55:15.137Z,15.10
2018-10-17T20:57:19.667Z,17.67
2018-10-17T20:59:24.072Z,17.47
2018-10-17T21:01:28.461Z,11.20
2018-10-17T21:03:31.468Z,17.07
2018-10-17T21:05:34.488Z,13.97
2018-10-17T21:07:38.129Z,12.60
2018-10-17T21:09:41.054Z,13.97
2018-10-17T21:11:44.705Z,16.37
2018-10-17T21:13:47.589Z,13.87
2018-10-17T21:15:50.494Z,14.97
2018-10-17T21:17:53.997Z,15.10
2018-10-17T21:19:57.650Z,18.80
2018-10-17T21:22:00.561Z,17.30
2018-10-17T21:24:03.442Z,22.00
2018-10-17T21:26:06.933Z,10.70
2018-10-17T21:28:10.259Z,18.13
2018-10-17T21:30:14.638Z,11.23
2018-10-17T21:32:17.619Z,12.23
2018-10-17T21:34:20.421Z,41.07
2018-10-17T21:36:23.301Z,24.90
2018-10-17T21:38:27.042Z,37.87
2018-10-17T21:40:29.957Z,42.57
2018-10-17T21:42:32.845Z,25.47
2018-10-17T21:44:35.756Z,18.33
2018-10-17T21:46:39.421Z,15.40
2018-10-17T21:48:42.315Z,13.97
2018-10-17T21:50:45.189Z,16.20
2018-10-17T21:52:48.104Z,10.50
2018-10-17T21:54:51.804Z,15.50
2018-10-17T21:56:56.439Z,13.20
2018-10-17T21:58:59.390Z,18.10
2018-10-17T22:01:02.309Z,17.57
2018-10-17T22:03:05.976Z,18.60
2018-10-17T22:05:09.092Z,20.03
2018-10-17T22:07:12.995Z,18.30
2018-10-17T22:09:16.672Z,11.67
2018-10-17T22:11:20.378Z,11.23
2018-10-17T22:13:24.773Z,14.13
2018-10-17T22:15:29.189Z,11.87
2018-10-17T22:17:32.188Z,13.33
2018-10-17T22:19:36.298Z,19.80
2018-10-17T22:21:39.183Z,14.83
2018-10-17T22:23:43.677Z,14.27
2018-10-17T22:25:47.665Z,28.77
2018-10-17T22:27:52.073Z,17.27
2018-10-17T22:29:54.995Z,15.37
2018-10-17T22:31:57.923Z,14.17
2018-10-17T22:34:00.751Z,17.27
2018-10-17T22:36:03.766Z,15.50
2018-10-17T22:38:07.974Z,15.07
2018-10-17T22:40:10.843Z,15.53
2018-10-17T22:42:14.759Z,15.60
2018-10-17T22:44:18.405Z,16.37
2018-10-17T22:46:21.281Z,17.30
2018-10-17T22:48:24.290Z,20.17
2018-10-17T22:50:28.720Z,30.27
2018-10-17T22:52:32.377Z,20.00
2018-10-17T22:54:35.389Z,16.37
2018-10-17T22:56:39.061Z,15.63
2018-10-17T22:58:41.941Z,18.20
2018-10-17T23:00:44.836Z,12.87
2018-10-17T23:02:47.744Z,15.27
2018-10-17T23:04:50.609Z,12.70
2018-10-17T23:06:53.530Z,15.53
2018-10-17T23:08:56.525Z,12.73
2018-10-17T23:10:59.409Z,12.30
2018-10-17T23:13:03.273Z,19.00
2018-10-17T23:15:07.660Z,20.20
2018-10-17T23:17:10.541Z,12.67
2018-10-17T23:19:13.451Z,13.23
2018-10-17T23:21:16.489Z,11.80
2018-10-17T23:23:19.652Z,15.67
2018-10-17T23:25:23.044Z,14.43
2018-10-17T23:27:26.022Z,32.17
2018-10-17T23:29:29.649Z,17.93
2018-10-17T23:31:32.557Z,18.83
2018-10-17T23:33:35.452Z,17.63
2018-10-17T23:35:39.152Z,12.77
2018-10-17T23:37:42.228Z,14.20
2018-10-17T23:39:47.553Z,13.13
2018-10-17T23:41:50.443Z,14.70
2018-10-17T23:43:53.584Z,16.70
2018-10-17T23:45:56.408Z,17.77
2018-10-17T23:47:59.474Z,17.07
2018-10-17T23:50:03.128Z,13.17
2018-10-17T23:52:06.801Z,14.40
2018-10-17T23:54:11.294Z,12.97
2018-10-17T23:56:14.268Z,15.30
2018-10-17T23:58:17.907Z,17.87
